Terminal Aerodrome Forecast
Issued by NWS

Home | Current Version | Previous Version | Graphics & Text | Print | Product List | Glossary On
Versions: 1 2 3 4 5 6 7 8 9 10 11 12 13 14 15 16 17 18 19 20 21 22
689
FTUS43 KMPX 151727
TAFRWF
TAF
KRWF 151727Z 1518/1618 11006KT P6SM SCT010 OVC250
     FM151900 13008KT P6SM BKN070 OVC250
     FM160000 13008KT P6SM VCSH OVC090
     FM160400 14008KT 5SM SHRA VCTS OVC040CB
     FM160900 13007KT 4SM SHRA BR OVC008=

USA.gov is the U.S. government's official web portal to all federal, state and local government web resources and services.